Time;durP1;ratioP1;P1;durP2;ratioP2;P2;SDS_P1;SDS_P2;PMS_P1;PMS_P2;Temp;Humidity;BMP_temperature;BMP_pressure;BME280_temperature;BME280_humidity;BME280_pressure;Samples;Min_cycle;Max_cycle;Signal;HPM_P1;HPM_P2
2023/08/08 00:02:18;;;;;;;;;;;13.20;99.90;;;;;;5038992;28;19964;-74
2023/08/08 00:04:44;;;;;;;;;;;13.20;99.90;;;;;;5038952;28;19925;-75
2023/08/08 00:07:10;;;;;;;;;;;13.20;99.90;;;;;;5038575;28;19944;-76
2023/08/08 00:09:35;;;;;;;;;;;13.30;99.90;;;;;;5023075;28;20180;-75
2023/08/08 00:12:01;;;;;;;;;;;13.30;99.90;;;;;;5021644;28;19929;-75
2023/08/08 00:14:26;;;;;;;;;;;13.30;99.90;;;;;;5037919;28;19929;-74
2023/08/08 00:16:52;;;;;;;;;;;13.30;99.90;;;;;;5021493;28;19948;-74
2023/08/08 00:19:17;;;;;;;;;;;13.30;99.90;;;;;;5055009;28;19988;-74
2023/08/08 00:21:43;;;;;;;;;;;13.30;99.90;;;;;;5038791;28;19929;-74
2023/08/08 00:24:09;;;;;;;;;;;13.40;99.90;;;;;;5038280;28;20400;-74
2023/08/08 00:26:34;;;;;;;;;;;13.40;99.90;;;;;;5039246;28;19992;-74
2023/08/08 00:29:00;;;;;;;;;;;13.40;99.90;;;;;;5021659;28;19928;-74
2023/08/08 00:31:25;;;;;;;;;;;13.40;99.90;;;;;;5038779;28;19960;-74
2023/08/08 00:33:51;;;;;;;;;;;13.40;99.90;;;;;;5029954;28;19936;-75
2023/08/08 00:36:16;;;;;;;;;;;13.40;99.90;;;;;;5071839;28;19985;-75
2023/08/08 00:38:42;;;;;;;;;;;13.50;99.90;;;;;;5054711;28;19925;-75
2023/08/08 00:41:08;;;;;;;;;;;13.50;99.90;;;;;;5038091;28;19925;-76
2023/08/08 00:43:33;;;;;;;;;;;13.50;99.90;;;;;;5038574;28;19929;-75
2023/08/08 00:45:59;;;;;;;;;;;13.50;99.90;;;;;;5037996;28;19925;-75
2023/08/08 00:48:25;;;;;;;;;;;13.50;99.90;;;;;;5037945;28;19973;-75
2023/08/08 00:50:51;;;;;;;;;;;13.50;99.90;;;;;;5037252;28;19925;-75
2023/08/08 00:53:18;;;;;;;;;;;13.50;99.90;;;;;;5038451;28;19959;-76
2023/08/08 00:55:43;;;;;;;;;;;13.50;99.90;;;;;;5037382;28;19951;-75
2023/08/08 00:58:09;;;;;;;;;;;13.60;99.90;;;;;;5038107;28;19929;-76
2023/08/08 01:00:36;;;;;;;;;;;13.60;99.90;;;;;;5037953;28;19925;-75
2023/08/08 01:03:02;;;;;;;;;;;13.60;99.90;;;;;;5037640;28;19932;-75
2023/08/08 01:05:32;;;;;;;;;;;13.60;99.90;;;;;;5021786;28;19925;-75
2023/08/08 01:08:08;;;;;;;;;;;13.60;99.90;;;;;;5037309;28;19960;-75
2023/08/08 01:10:36;;;;;;;;;;;13.60;99.90;;;;;;5021777;28;19972;-76
2023/08/08 01:13:13;;;;;;;;;;;13.70;99.90;;;;;;5037871;28;20911;-75
2023/08/08 01:15:39;;;;;;;;;;;13.70;99.90;;;;;;5020766;28;19925;-75
2023/08/08 01:18:05;;;;;;;;;;;13.70;99.90;;;;;;5070870;28;19936;-75
2023/08/08 01:20:33;;;;;;;;;;;13.70;99.90;;;;;;5053624;28;19988;-75
2023/08/08 01:23:03;;;;;;;;;;;13.70;99.90;;;;;;5023977;28;19925;-75
2023/08/08 01:25:30;;;;;;;;;;;13.70;99.90;;;;;;5036437;28;19925;-76
2023/08/08 01:27:55;;;;;;;;;;;13.70;99.90;;;;;;5020024;28;19932;-76
2023/08/08 01:30:21;;;;;;;;;;;13.70;99.90;;;;;;5036839;28;19925;-75
2023/08/08 01:32:48;;;;;;;;;;;13.70;99.90;;;;;;5037205;28;19925;-75
2023/08/08 01:35:13;;;;;;;;;;;13.80;99.90;;;;;;5071095;28;19972;-76
2023/08/08 01:37:52;;;;;;;;;;;13.70;99.90;;;;;;5053662;28;19929;-76
2023/08/08 01:40:18;;;;;;;;;;;13.80;99.90;;;;;;5054203;28;19925;-74
2023/08/08 01:42:44;;;;;;;;;;;13.80;99.90;;;;;;5003782;28;19929;-75
2023/08/08 01:45:10;;;;;;;;;;;13.80;99.90;;;;;;5037292;28;19932;-75
2023/08/08 01:47:36;;;;;;;;;;;13.80;99.90;;;;;;5036898;28;19929;-75
2023/08/08 01:50:02;;;;;;;;;;;13.80;99.90;;;;;;5038235;28;19971;-75
2023/08/08 01:52:28;;;;;;;;;;;13.80;99.90;;;;;;5021074;28;20034;-74
2023/08/08 01:54:54;;;;;;;;;;;13.80;99.90;;;;;;5053486;28;20347;-74
2023/08/08 01:57:19;;;;;;;;;;;13.80;99.90;;;;;;5053772;28;19968;-75
2023/08/08 01:59:45;;;;;;;;;;;13.90;99.90;;;;;;5053231;28;19929;-75
2023/08/08 02:02:10;;;;;;;;;;;13.80;99.90;;;;;;5025100;28;19964;-74
2023/08/08 02:04:36;;;;;;;;;;;13.90;99.90;;;;;;5037251;28;19961;-74
2023/08/08 02:07:02;;;;;;;;;;;13.90;99.90;;;;;;5036812;28;19925;-74
2023/08/08 02:09:27;;;;;;;;;;;13.90;99.90;;;;;;5037324;28;20016;-76
2023/08/08 02:11:53;;;;;;;;;;;13.90;99.90;;;;;;5037060;28;20294;-75
2023/08/08 02:14:18;;;;;;;;;;;14.00;99.90;;;;;;5053791;28;19940;-75
2023/08/08 02:16:44;;;;;;;;;;;13.90;99.90;;;;;;5036522;28;19925;-75
2023/08/08 02:19:09;;;;;;;;;;;14.00;99.90;;;;;;5036777;28;20439;-74
2023/08/08 02:21:35;;;;;;;;;;;14.00;99.90;;;;;;5053662;28;19929;-74
2023/08/08 02:24:00;;;;;;;;;;;14.00;99.90;;;;;;5053304;28;19925;-75
2023/08/08 02:26:26;;;;;;;;;;;14.00;99.90;;;;;;5022168;28;19929;-75
2023/08/08 02:28:52;;;;;;;;;;;14.00;99.90;;;;;;5053330;28;19952;-74
2023/08/08 02:31:20;;;;;;;;;;;14.00;99.90;;;;;;5037388;28;19924;-75
2023/08/08 02:33:52;;;;;;;;;;;14.00;99.90;;;;;;5035998;28;19932;-74
2023/08/08 02:36:18;;;;;;;;;;;14.00;99.90;;;;;;5036657;28;19925;-74
2023/08/08 02:38:44;;;;;;;;;;;14.10;99.90;;;;;;5039324;28;19987;-74
2023/08/08 02:41:10;;;;;;;;;;;14.10;99.90;;;;;;5041714;28;19929;-74
2023/08/08 02:43:35;;;;;;;;;;;14.00;99.90;;;;;;5024196;28;19964;-74
2023/08/08 02:46:01;;;;;;;;;;;14.10;99.90;;;;;;5040096;28;20020;-75
2023/08/08 02:48:26;;;;;;;;;;;14.10;99.90;;;;;;5056864;28;19952;-74
2023/08/08 02:50:52;;;;;;;;;;;14.10;99.90;;;;;;5056335;28;19925;-74
2023/08/08 02:53:18;;;;;;;;;;;14.00;99.90;;;;;;5023976;28;19932;-74
2023/08/08 02:55:43;;;;;;;;;;;14.00;99.90;;;;;;5073097;28;19968;-74
2023/08/08 02:58:09;;;;;;;;;;;14.10;99.90;;;;;;5040529;28;19952;-74
2023/08/08 03:00:35;;;;;;;;;;;13.90;99.90;;;;;;5040061;28;19944;-75
2023/08/08 03:03:00;;;;;;;;;;;13.90;99.90;;;;;;5056406;28;20036;-74
2023/08/08 03:05:26;;;;;;;;;;;13.80;99.90;;;;;;5057014;28;19991;-75
2023/08/08 03:07:51;;;;;;;;;;;13.70;99.90;;;;;;5055980;28;19925;-75
2023/08/08 03:10:17;;;;;;;;;;;13.70;99.90;;;;;;5057038;28;19948;-74
2023/08/08 03:12:42;;;;;;;;;;;13.70;99.90;;;;;;5039183;28;19929;-75
2023/08/08 03:15:08;;;;;;;;;;;13.60;99.90;;;;;;5039154;28;19925;-74
2023/08/08 03:17:34;;;;;;;;;;;13.60;99.90;;;;;;5072979;28;19929;-74
2023/08/08 03:20:00;;;;;;;;;;;13.60;99.90;;;;;;5029073;28;19933;-74
2023/08/08 03:22:26;;;;;;;;;;;13.50;99.90;;;;;;5019249;28;19929;-74
2023/08/08 03:24:51;;;;;;;;;;;13.50;99.90;;;;;;5022407;28;20016;-75
2023/08/08 03:27:17;;;;;;;;;;;13.50;99.90;;;;;;5042684;28;19996;-74
2023/08/08 03:29:42;;;;;;;;;;;13.50;99.90;;;;;;5055423;28;19925;-74
2023/08/08 03:32:08;;;;;;;;;;;13.50;99.90;;;;;;5056507;28;19964;-74
2023/08/08 03:34:34;;;;;;;;;;;13.40;99.90;;;;;;5072714;28;19929;-74
2023/08/08 03:36:59;;;;;;;;;;;13.40;99.90;;;;;;5039349;28;19980;-74
2023/08/08 03:39:25;;;;;;;;;;;13.40;99.90;;;;;;5056509;28;19929;-74
2023/08/08 03:41:50;;;;;;;;;;;13.40;99.90;;;;;;5041301;28;19991;-75
2023/08/08 03:44:16;;;;;;;;;;;13.40;99.90;;;;;;5039795;28;19925;-74
2023/08/08 03:46:41;;;;;;;;;;;13.40;99.90;;;;;;5055473;28;19932;-75
2023/08/08 03:49:07;;;;;;;;;;;13.40;99.90;;;;;;5055338;28;19932;-75
2023/08/08 03:51:33;;;;;;;;;;;13.40;99.90;;;;;;5038889;28;19929;-75
2023/08/08 03:53:59;;;;;;;;;;;13.30;99.90;;;;;;5033000;28;19929;-74
2023/08/08 03:56:24;;;;;;;;;;;13.30;99.90;;;;;;5064910;28;19925;-74
2023/08/08 03:58:50;;;;;;;;;;;13.30;99.90;;;;;;5055228;28;19972;-75
2023/08/08 04:01:15;;;;;;;;;;;13.30;99.90;;;;;;5045670;28;19979;-75
2023/08/08 04:03:41;;;;;;;;;;;13.30;99.90;;;;;;5018037;28;19951;-74
2023/08/08 04:06:06;;;;;;;;;;;13.30;99.90;;;;;;5039474;28;19929;-74
2023/08/08 04:08:32;;;;;;;;;;;13.30;99.90;;;;;;5057569;28;19925;-74
2023/08/08 04:10:58;;;;;;;;;;;13.30;99.90;;;;;;5038990;28;19932;-74
2023/08/08 04:13:23;;;;;;;;;;;13.30;99.90;;;;;;5027078;28;19930;-74
2023/08/08 04:15:51;;;;;;;;;;;13.20;99.90;;;;;;5069929;28;19925;-74
2023/08/08 04:18:17;;;;;;;;;;;13.20;99.90;;;;;;5055373;28;19948;-74
2023/08/08 04:20:43;;;;;;;;;;;13.20;99.90;;;;;;5037795;28;19925;-74
2023/08/08 04:23:08;;;;;;;;;;;13.20;99.90;;;;;;5022698;28;19972;-74
2023/08/08 04:25:34;;;;;;;;;;;13.20;99.90;;;;;;5038063;28;19940;-74
2023/08/08 04:27:59;;;;;;;;;;;13.20;99.90;;;;;;5055440;28;20378;-74
2023/08/08 04:30:25;;;;;;;;;;;13.20;99.90;;;;;;5055101;28;19929;-74
2023/08/08 04:32:50;;;;;;;;;;;13.10;99.90;;;;;;5038105;28;19984;-74
2023/08/08 04:35:16;;;;;;;;;;;13.20;99.90;;;;;;5038793;28;19929;-74
2023/08/08 04:37:42;;;;;;;;;;;13.20;99.90;;;;;;5054487;28;19925;-74
2023/08/08 04:40:08;;;;;;;;;;;13.10;99.90;;;;;;5038453;28;19925;-74
2023/08/08 04:42:33;;;;;;;;;;;13.10;99.90;;;;;;5043703;28;20376;-74
2023/08/08 04:44:59;;;;;;;;;;;13.10;99.90;;;;;;5067928;28;19932;-74
2023/08/08 04:47:25;;;;;;;;;;;13.10;99.90;;;;;;5054175;28;19925;-74
2023/08/08 04:49:50;;;;;;;;;;;13.20;99.90;;;;;;5021396;28;19935;-74
2023/08/08 04:52:16;;;;;;;;;;;13.10;99.90;;;;;;5048544;28;19929;-74
2023/08/08 04:54:41;;;;;;;;;;;13.20;99.90;;;;;;5029908;28;19925;-74
2023/08/08 04:57:07;;;;;;;;;;;13.20;99.90;;;;;;5071524;28;19937;-74
2023/08/08 04:59:33;;;;;;;;;;;13.30;99.90;;;;;;5053304;28;19932;-74
2023/08/08 05:01:59;;;;;;;;;;;13.40;99.90;;;;;;5037962;28;19929;-74
2023/08/08 05:04:24;;;;;;;;;;;13.60;99.90;;;;;;5037610;28;20373;-74
2023/08/08 05:06:50;;;;;;;;;;;13.80;99.90;;;;;;5037944;28;19925;-74
2023/08/08 05:09:15;;;;;;;;;;;13.90;99.90;;;;;;5037921;28;20000;-74
2023/08/08 05:11:47;;;;;;;;;;;14.00;99.90;;;;;;5037123;28;19936;-74
2023/08/08 05:14:12;;;;;;;;;;;14.00;99.90;;;;;;5038112;28;20408;-74
2023/08/08 05:16:38;;;;;;;;;;;14.30;99.90;;;;;;5053601;28;19929;-75
2023/08/08 05:19:04;;;;;;;;;;;14.40;99.90;;;;;;5037598;28;19976;-75
2023/08/08 05:21:29;;;;;;;;;;;14.40;99.90;;;;;;5045216;28;19964;-74
2023/08/08 05:23:55;;;;;;;;;;;14.40;99.90;;;;;;5032267;28;19929;-75
2023/08/08 05:26:20;;;;;;;;;;;14.30;99.90;;;;;;5038068;28;19952;-74
2023/08/08 05:28:46;;;;;;;;;;;14.30;99.90;;;;;;5040856;28;19957;-74
2023/08/08 05:31:11;;;;;;;;;;;14.30;99.90;;;;;;5055913;28;19925;-74
2023/08/08 05:33:37;;;;;;;;;;;14.30;99.90;;;;;;5053255;28;20418;-75
2023/08/08 05:36:02;;;;;;;;;;;14.30;99.90;;;;;;5054332;28;19936;-75
2023/08/08 05:38:28;;;;;;;;;;;14.30;99.90;;;;;;5053536;28;19925;-75
2023/08/08 05:40:54;;;;;;;;;;;14.30;99.90;;;;;;5070857;28;19929;-74
2023/08/08 05:43:21;;;;;;;;;;;14.20;99.90;;;;;;5054055;28;19971;-74
2023/08/08 05:45:46;;;;;;;;;;;14.20;99.90;;;;;;5036884;28;19929;-75
2023/08/08 05:48:12;;;;;;;;;;;14.20;99.90;;;;;;5053698;28;19931;-74
2023/08/08 05:50:38;;;;;;;;;;;14.20;99.90;;;;;;5046287;28;19987;-75
2023/08/08 05:53:04;;;;;;;;;;;14.20;99.90;;;;;;5030299;28;19936;-74
2023/08/08 05:55:29;;;;;;;;;;;14.20;99.90;;;;;;5036376;28;19936;-74
2023/08/08 05:57:55;;;;;;;;;;;14.20;99.90;;;;;;5037280;28;19926;-74
2023/08/08 06:00:21;;;;;;;;;;;14.40;99.90;;;;;;5039357;28;19933;-75
2023/08/08 06:02:46;;;;;;;;;;;14.70;99.90;;;;;;5036922;28;19971;-75
2023/08/08 06:05:12;;;;;;;;;;;15.30;99.90;;;;;;5053754;28;19925;-75
2023/08/08 06:07:39;;;;;;;;;;;15.90;99.90;;;;;;5020309;28;19984;-75
2023/08/08 06:10:05;;;;;;;;;;;16.00;99.90;;;;;;5021298;28;20315;-75
2023/08/08 06:12:31;;;;;;;;;;;15.90;99.90;;;;;;5024453;28;20442;-75
2023/08/08 06:14:56;;;;;;;;;;;15.80;99.90;;;;;;5040652;28;20390;-75
2023/08/08 06:17:23;;;;;;;;;;;15.80;99.90;;;;;;5057531;28;19925;-75
2023/08/08 06:19:50;;;;;;;;;;;16.00;99.90;;;;;;5040879;28;20363;-74
2023/08/08 06:22:15;;;;;;;;;;;16.30;99.90;;;;;;5041178;28;20392;-74
2023/08/08 06:24:41;;;;;;;;;;;16.90;99.90;;;;;;5040539;28;19932;-76
2023/08/08 06:27:07;;;;;;;;;;;17.40;99.90;;;;;;5008527;28;19925;-76
2023/08/08 06:29:32;;;;;;;;;;;17.90;99.90;;;;;;5042407;28;19929;-76
2023/08/08 06:31:58;;;;;;;;;;;18.30;99.90;;;;;;5040871;28;19932;-76
2023/08/08 06:34:23;;;;;;;;;;;18.70;99.90;;;;;;5057170;28;19948;-76
2023/08/08 06:36:49;;;;;;;;;;;19.10;99.90;;;;;;5007594;28;19956;-76
2023/08/08 06:39:15;;;;;;;;;;;19.40;99.90;;;;;;5057614;28;19929;-79
2023/08/08 06:41:41;;;;;;;;;;;19.60;99.90;;;;;;5056679;28;19924;-78
2023/08/08 06:44:10;;;;;;;;;;;19.80;99.90;;;;;;5040696;28;20538;-78
2023/08/08 06:46:35;;;;;;;;;;;19.90;99.90;;;;;;5072637;28;20364;-78
2023/08/08 06:49:01;;;;;;;;;;;20.20;99.90;;;;;;5039796;28;19933;-79
2023/08/08 06:51:30;;;;;;;;;;;20.30;99.90;;;;;;5041593;28;19987;-79
2023/08/08 06:53:55;;;;;;;;;;;20.50;99.90;;;;;;5050936;28;19925;-76
2023/08/08 06:56:21;;;;;;;;;;;20.50;99.90;;;;;;5016230;28;19929;-81
2023/08/08 06:58:50;;;;;;;;;;;20.50;99.90;;;;;;5039471;28;19925;-81
2023/08/08 07:01:15;;;;;;;;;;;20.30;99.90;;;;;;5057283;28;20391;-84
2023/08/08 07:03:41;;;;;;;;;;;20.00;99.90;;;;;;5039812;28;19925;-81
2023/08/08 07:06:06;;;;;;;;;;;19.70;99.90;;;;;;5040702;28;19968;-81
2023/08/08 07:08:32;;;;;;;;;;;19.50;99.90;;;;;;5023234;28;19940;-79
2023/08/08 07:10:58;;;;;;;;;;;19.30;99.90;;;;;;5039755;28;19931;-81
2023/08/08 07:13:24;;;;;;;;;;;19.10;99.90;;;;;;5040196;28;19929;-86
2023/08/08 07:15:55;;;;;;;;;;;18.80;99.90;;;;;;5039769;28;19932;-85
2023/08/08 07:18:20;;;;;;;;;;;18.70;99.90;;;;;;5056480;28;20020;-82
2023/08/08 07:20:46;;;;;;;;;;;18.60;99.90;;;;;;5039455;28;20424;-80
2023/08/08 07:23:12;;;;;;;;;;;18.60;99.90;;;;;;5056788;28;20400;-78
2023/08/08 07:25:37;;;;;;;;;;;18.50;99.90;;;;;;5055858;28;19936;-77
2023/08/08 07:28:03;;;;;;;;;;;18.60;99.90;;;;;;5039738;28;19925;-83
2023/08/08 07:30:28;;;;;;;;;;;18.80;99.90;;;;;;5031197;28;20000;-80
2023/08/08 07:32:54;;;;;;;;;;;19.20;99.90;;;;;;5039642;28;20221;-83
2023/08/08 07:35:19;;;;;;;;;;;19.70;99.90;;;;;;5040393;28;19947;-80
2023/08/08 07:37:45;;;;;;;;;;;20.20;99.90;;;;;;5055168;28;19925;-80
2023/08/08 07:40:15;;;;;;;;;;;20.40;99.90;;;;;;5039687;28;19925;-78
2023/08/08 07:42:41;;;;;;;;;;;20.60;99.90;;;;;;5038267;28;19926;-81
2023/08/08 07:45:09;;;;;;;;;;;21.00;99.90;;;;;;5039218;28;19925;-84
2023/08/08 07:47:35;;;;;;;;;;;21.30;99.90;;;;;;5056065;28;19968;-80
2023/08/08 07:50:08;;;;;;;;;;;21.40;99.90;;;;;;5068486;28;20399;-82
2023/08/08 07:52:34;;;;;;;;;;;21.60;99.90;;;;;;5055993;28;19925;-76
2023/08/08 07:54:59;;;;;;;;;;;21.90;99.90;;;;;;5068770;28;19971;-78
2023/08/08 07:57:26;;;;;;;;;;;21.60;99.90;;;;;;5039705;28;19925;-78
2023/08/08 07:59:51;;;;;;;;;;;21.00;99.90;;;;;;5038644;28;19947;-77
2023/08/08 08:02:17;;;;;;;;;;;20.30;99.90;;;;;;5041158;28;19925;-79
2023/08/08 08:04:43;;;;;;;;;;;19.70;99.90;;;;;;5038835;28;19929;-78
2023/08/08 08:07:11;;;;;;;;;;;19.30;99.90;;;;;;5054947;28;19948;-77
2023/08/08 08:09:37;;;;;;;;;;;19.00;99.90;;;;;;5056030;28;20736;-80
2023/08/08 08:12:03;;;;;;;;;;;18.60;99.90;;;;;;5053902;28;19932;-78
2023/08/08 08:14:28;;;;;;;;;;;18.50;99.90;;;;;;5056572;28;19948;-78
2023/08/08 08:16:55;;;;;;;;;;;18.30;99.90;;;;;;5055056;28;19929;-79
2023/08/08 08:19:21;;;;;;;;;;;18.30;99.90;;;;;;5070472;28;19929;-78
2023/08/08 08:21:47;;;;;;;;;;;18.30;99.90;;;;;;5038942;28;19936;-79
2023/08/08 08:24:12;;;;;;;;;;;18.50;99.90;;;;;;5038172;28;19980;-80
2023/08/08 08:26:38;;;;;;;;;;;18.70;99.90;;;;;;5055769;28;19925;-82
2023/08/08 08:29:09;;;;;;;;;;;19.00;99.90;;;;;;5053697;28;19935;-77
2023/08/08 08:31:37;;;;;;;;;;;19.20;99.90;;;;;;5038348;28;19964;-80
2023/08/08 08:34:03;;;;;;;;;;;19.30;99.90;;;;;;5054069;28;19925;-77
2023/08/08 08:36:28;;;;;;;;;;;19.30;99.90;;;;;;5053398;28;19926;-77
2023/08/08 08:38:54;;;;;;;;;;;19.30;99.90;;;;;;5055172;28;19929;-78
2023/08/08 08:41:21;;;;;;;;;;;19.40;99.90;;;;;;5037984;28;19985;-77
2023/08/08 08:43:54;;;;;;;;;;;19.40;99.90;;;;;;5031871;28;19972;-77
2023/08/08 08:46:20;;;;;;;;;;;19.30;99.90;;;;;;5014339;28;19936;-78
2023/08/08 08:48:47;;;;;;;;;;;19.30;99.90;;;;;;5021890;28;19980;-80
2023/08/08 08:51:12;;;;;;;;;;;19.30;99.90;;;;;;5070765;28;20008;-81
2023/08/08 08:53:39;;;;;;;;;;;19.30;99.90;;;;;;5051535;28;19925;-78
2023/08/08 08:56:05;;;;;;;;;;;19.40;99.90;;;;;;5061067;28;19929;-78
2023/08/08 08:58:33;;;;;;;;;;;19.40;99.90;;;;;;5054069;28;19925;-80
2023/08/08 09:01:00;;;;;;;;;;;19.40;99.90;;;;;;5038283;28;19968;-79
2023/08/08 09:03:26;;;;;;;;;;;19.20;99.90;;;;;;5053312;28;20392;-78
2023/08/08 09:05:54;;;;;;;;;;;19.20;99.90;;;;;;5021563;28;19932;-77
2023/08/08 09:08:20;;;;;;;;;;;18.90;99.90;;;;;;5020885;28;19933;-79
2023/08/08 09:10:45;;;;;;;;;;;18.90;99.90;;;;;;5037778;28;19925;-77
2023/08/08 09:13:11;;;;;;;;;;;19.00;99.90;;;;;;5027573;28;19969;-78
2023/08/08 09:15:37;;;;;;;;;;;19.20;99.90;;;;;;5017258;28;20392;-78
2023/08/08 09:18:03;;;;;;;;;;;19.60;99.90;;;;;;5071130;28;19948;-77
2023/08/08 09:20:29;;;;;;;;;;;19.90;99.90;;;;;;5053371;28;20287;-77
2023/08/08 09:22:54;;;;;;;;;;;20.10;99.90;;;;;;5054899;28;19933;-78
2023/08/08 09:25:20;;;;;;;;;;;20.00;99.90;;;;;;5069876;28;19944;-80
2023/08/08 09:27:47;;;;;;;;;;;19.70;99.90;;;;;;5037558;28;20052;-79
2023/08/08 09:30:12;;;;;;;;;;;19.50;99.90;;;;;;5037036;28;20723;-77
2023/08/08 09:32:38;;;;;;;;;;;19.20;99.90;;;;;;5036852;28;19936;-79
2023/08/08 09:35:10;;;;;;;;;;;19.10;99.90;;;;;;5022038;28;20397;-77
2023/08/08 09:37:36;;;;;;;;;;;19.30;99.90;;;;;;5036445;28;20019;-80
2023/08/08 09:40:03;;;;;;;;;;;19.60;99.90;;;;;;5021229;28;19932;-79
2023/08/08 09:42:29;;;;;;;;;;;19.90;99.90;;;;;;5020542;28;19929;-76
2023/08/08 09:44:59;;;;;;;;;;;20.30;99.90;;;;;;5037250;28;19979;-76
2023/08/08 09:47:24;;;;;;;;;;;20.50;99.90;;;;;;5053754;28;19940;-77
2023/08/08 09:49:52;;;;;;;;;;;20.40;99.90;;;;;;5052959;28;19925;-78
2023/08/08 09:52:18;;;;;;;;;;;20.40;99.90;;;;;;5037655;28;19932;-79
2023/08/08 09:54:44;;;;;;;;;;;20.00;99.90;;;;;;5037037;28;19933;-76
2023/08/08 09:57:10;;;;;;;;;;;19.40;99.90;;;;;;5040122;28;19956;-75
2023/08/08 09:59:37;;;;;;;;;;;18.60;99.90;;;;;;5036732;28;19929;-77
2023/08/08 10:02:04;;;;;;;;;;;17.90;99.90;;;;;;5023499;28;19952;-77
2023/08/08 10:04:29;;;;;;;;;;;17.50;99.90;;;;;;5031593;28;20365;-78
2023/08/08 10:06:55;;;;;;;;;;;17.40;99.90;;;;;;5036888;28;19956;-77
2023/08/08 10:09:21;;;;;;;;;;;17.40;99.90;;;;;;5037410;28;19929;-77
2023/08/08 10:11:47;;;;;;;;;;;17.70;99.90;;;;;;5037253;28;19932;-76
2023/08/08 10:14:14;;;;;;;;;;;17.80;99.90;;;;;;5054227;28;19932;-76
2023/08/08 10:16:41;;;;;;;;;;;17.90;99.90;;;;;;5036471;28;19925;-77
2023/08/08 10:19:07;;;;;;;;;;;18.20;99.90;;;;;;5053587;28;19925;-77
2023/08/08 10:21:36;;;;;;;;;;;18.60;99.90;;;;;;5037006;28;20394;-76
2023/08/08 10:24:03;;;;;;;;;;;18.80;99.90;;;;;;5035443;28;20300;-76
2023/08/08 10:26:29;;;;;;;;;;;19.00;99.90;;;;;;5025616;28;19968;-77
2023/08/08 10:28:55;;;;;;;;;;;19.30;99.90;;;;;;5036437;28;19929;-77
2023/08/08 10:31:21;;;;;;;;;;;19.80;99.90;;;;;;5037442;28;19972;-77
2023/08/08 10:33:47;;;;;;;;;;;19.90;99.90;;;;;;5036443;28;20006;-77
2023/08/08 10:36:16;;;;;;;;;;;19.60;99.90;;;;;;5053653;28;19981;-81
2023/08/08 10:38:46;;;;;;;;;;;19.20;99.90;;;;;;5036881;28;19932;-77
2023/08/08 10:41:13;;;;;;;;;;;18.80;99.90;;;;;;5036936;28;19925;-78
2023/08/08 10:43:46;;;;;;;;;;;18.50;99.90;;;;;;5020906;28;19994;-77
2023/08/08 10:46:12;;;;;;;;;;;18.30;99.90;;;;;;5036563;28;19925;-79
2023/08/08 10:48:48;;;;;;;;;;;18.10;99.90;;;;;;5036776;28;19932;-76
2023/08/08 10:51:14;;;;;;;;;;;18.10;99.90;;;;;;5036505;28;19967;-77
2023/08/08 10:53:39;;;;;;;;;;;17.90;99.90;;;;;;5036821;28;19929;-78
2023/08/08 10:56:06;;;;;;;;;;;17.90;99.90;;;;;;5053581;28;19957;-79
2023/08/08 10:58:36;;;;;;;;;;;17.80;99.90;;;;;;5053770;28;19940;-80
2023/08/08 11:01:02;;;;;;;;;;;17.70;99.90;;;;;;5023898;28;19925;-77
2023/08/08 11:03:29;;;;;;;;;;;17.70;99.90;;;;;;5072808;28;20124;-77
2023/08/08 11:05:55;;;;;;;;;;;17.80;99.90;;;;;;5024410;28;20444;-80
2023/08/08 11:08:22;;;;;;;;;;;17.80;99.90;;;;;;5039885;28;19936;-80
2023/08/08 11:10:51;;;;;;;;;;;17.70;99.90;;;;;;5040242;28;19925;-78
2023/08/08 11:13:16;;;;;;;;;;;17.60;99.90;;;;;;5023889;28;19976;-77
2023/08/08 11:15:42;;;;;;;;;;;17.40;99.90;;;;;;5039822;28;19925;-81
2023/08/08 11:18:09;;;;;;;;;;;17.50;99.90;;;;;;5023779;28;19976;-81
2023/08/08 11:20:35;;;;;;;;;;;17.90;99.90;;;;;;5056243;28;20316;-76
2023/08/08 11:23:01;;;;;;;;;;;18.30;99.90;;;;;;5040440;28;19983;-81
2023/08/08 11:25:28;;;;;;;;;;;18.80;99.90;;;;;;5039356;28;19956;-77
2023/08/08 11:27:54;;;;;;;;;;;19.10;99.90;;;;;;5040109;28;19925;-78
2023/08/08 11:30:20;;;;;;;;;;;19.30;99.90;;;;;;5039916;28;20391;-81
2023/08/08 11:32:47;;;;;;;;;;;19.30;99.90;;;;;;5039790;28;19953;-80
2023/08/08 11:35:12;;;;;;;;;;;19.40;99.90;;;;;;5040085;28;20012;-78
2023/08/08 11:37:38;;;;;;;;;;;19.40;99.90;;;;;;5039156;28;19960;-80
2023/08/08 11:40:05;;;;;;;;;;;19.20;99.90;;;;;;5040014;28;19929;-78
2023/08/08 11:42:31;;;;;;;;;;;19.00;99.90;;;;;;5056006;28;19925;-80
2023/08/08 11:44:57;;;;;;;;;;;18.60;99.90;;;;;;5039543;28;19929;-84
2023/08/08 11:47:26;;;;;;;;;;;18.10;99.90;;;;;;5023204;28;19983;-83
2023/08/08 11:49:52;;;;;;;;;;;17.80;99.90;;;;;;5038165;28;20392;-77
2023/08/08 11:52:18;;;;;;;;;;;17.80;99.90;;;;;;5043049;28;19940;-73
2023/08/08 11:54:44;;;;;;;;;;;17.80;99.90;;;;;;5040636;28;19991;-76
2023/08/08 11:57:09;;;;;;;;;;;18.00;99.90;;;;;;5039612;28;19949;-74
2023/08/08 11:59:35;;;;;;;;;;;18.20;99.90;;;;;;5038882;28;19936;-74
2023/08/08 12:02:01;;;;;;;;;;;18.50;99.90;;;;;;5040504;28;19931;-77
2023/08/08 12:04:27;;;;;;;;;;;18.70;99.90;;;;;;5055785;28;19988;-79
2023/08/08 12:07:00;;;;;;;;;;;18.80;99.90;;;;;;5027948;28;19925;-77
2023/08/08 12:09:28;;;;;;;;;;;18.70;99.90;;;;;;5039608;28;19925;-77
2023/08/08 12:11:54;;;;;;;;;;;18.50;99.90;;;;;;5038649;28;20331;-83
2023/08/08 12:14:20;;;;;;;;;;;18.30;99.90;;;;;;5058839;28;20056;-83
2023/08/08 12:16:45;;;;;;;;;;;18.20;99.90;;;;;;5038659;28;19929;-78
2023/08/08 12:19:22;;;;;;;;;;;18.10;99.90;;;;;;5054470;28;20002;-77
2023/08/08 12:21:47;;;;;;;;;;;18.00;99.90;;;;;;5039417;28;19955;-77
2023/08/08 12:24:13;;;;;;;;;;;17.90;99.90;;;;;;5055119;28;19929;-77
2023/08/08 12:26:39;;;;;;;;;;;17.90;99.90;;;;;;5056057;28;19951;-79
2023/08/08 12:29:04;;;;;;;;;;;17.80;99.90;;;;;;5021625;28;19933;-76
2023/08/08 12:31:30;;;;;;;;;;;17.70;99.90;;;;;;5039201;28;20012;-77
2023/08/08 12:33:55;;;;;;;;;;;17.70;99.90;;;;;;5038215;28;20000;-77
2023/08/08 12:36:21;;;;;;;;;;;17.60;99.90;;;;;;5038473;28;19993;-76
2023/08/08 12:38:46;;;;;;;;;;;17.60;99.90;;;;;;5038792;28;19929;-76
2023/08/08 12:41:12;;;;;;;;;;;17.60;99.90;;;;;;5024952;28;19947;-76
2023/08/08 12:43:38;;;;;;;;;;;17.50;99.90;;;;;;5054932;28;19964;-76
2023/08/08 12:46:04;;;;;;;;;;;17.50;99.90;;;;;;5037634;28;19937;-75
2023/08/08 12:48:29;;;;;;;;;;;17.50;99.90;;;;;;5038270;28;19925;-75
2023/08/08 12:50:55;;;;;;;;;;;17.40;99.90;;;;;;5054121;28;19985;-77
2023/08/08 12:53:22;;;;;;;;;;;17.40;99.90;;;;;;5038339;28;19982;-80
2023/08/08 12:55:47;;;;;;;;;;;17.40;99.90;;;;;;5047714;28;20008;-78
2023/08/08 12:58:13;;;;;;;;;;;17.70;99.90;;;;;;5011468;28;19983;-81
2023/08/08 13:00:39;;;;;;;;;;;17.90;99.90;;;;;;5054146;28;19933;-78
2023/08/08 13:03:04;;;;;;;;;;;18.30;99.90;;;;;;5054565;28;19925;-78
2023/08/08 13:05:30;;;;;;;;;;;18.60;99.90;;;;;;5071449;28;19925;-77
2023/08/08 13:07:56;;;;;;;;;;;18.90;99.90;;;;;;5070970;28;19929;-79
2023/08/08 13:10:21;;;;;;;;;;;19.00;99.90;;;;;;5038150;28;19965;-78
2023/08/08 13:12:47;;;;;;;;;;;19.10;99.90;;;;;;5054161;28;20000;-77
2023/08/08 13:15:13;;;;;;;;;;;19.30;99.90;;;;;;5037684;28;19925;-74
2023/08/08 13:17:39;;;;;;;;;;;19.70;99.90;;;;;;5038397;28;19947;-76
2023/08/08 13:20:04;;;;;;;;;;;19.80;99.90;;;;;;5070096;28;19929;-76
2023/08/08 13:22:30;;;;;;;;;;;19.80;99.90;;;;;;5025178;28;19925;-76
2023/08/08 13:24:55;;;;;;;;;;;19.60;99.90;;;;;;5061459;28;19933;-76
2023/08/08 13:27:22;;;;;;;;;;;19.40;99.90;;;;;;5052297;28;19936;-76
2023/08/08 13:29:48;;;;;;;;;;;19.20;99.90;;;;;;5070407;28;20422;-81
2023/08/08 13:32:13;;;;;;;;;;;19.00;99.90;;;;;;5037970;28;19988;-80
2023/08/08 13:34:39;;;;;;;;;;;18.90;99.90;;;;;;5054225;28;19925;-83
2023/08/08 13:37:05;;;;;;;;;;;18.70;99.90;;;;;;5037153;28;19959;-79
2023/08/08 13:39:30;;;;;;;;;;;18.60;99.90;;;;;;5037983;28;19925;-77
2023/08/08 13:41:56;;;;;;;;;;;18.40;99.90;;;;;;5036700;28;19925;-75
2023/08/08 13:44:21;;;;;;;;;;;18.10;99.90;;;;;;5030313;28;19940;-76
2023/08/08 13:46:47;;;;;;;;;;;17.90;99.90;;;;;;5037170;28;19931;-77
2023/08/08 13:49:12;;;;;;;;;;;17.70;99.90;;;;;;5053701;28;19925;-76
2023/08/08 13:51:39;;;;;;;;;;;17.60;99.90;;;;;;5037446;28;20078;-79
2023/08/08 13:54:05;;;;;;;;;;;17.60;99.90;;;;;;5036770;28;19932;-79
2023/08/08 13:56:31;;;;;;;;;;;17.50;99.90;;;;;;5038069;28;19928;-78
2023/08/08 13:58:56;;;;;;;;;;;17.50;99.90;;;;;;5053122;28;19932;-79
2023/08/08 14:01:22;;;;;;;;;;;17.40;99.90;;;;;;5043114;28;19926;-78
2023/08/08 14:03:48;;;;;;;;;;;17.30;99.90;;;;;;5067106;28;19977;-77
2023/08/08 14:06:14;;;;;;;;;;;17.40;99.90;;;;;;5028509;28;19926;-77
2023/08/08 14:08:39;;;;;;;;;;;17.50;99.90;;;;;;5065739;28;19956;-79
2023/08/08 14:11:05;;;;;;;;;;;17.70;99.90;;;;;;5020781;28;19992;-76